sensor_id;sensor_type;location;lat;lon;timestamp;pressure;altitude;pressure_sealevel;temperature;humidity
53514;BME280;39768;54.148;12.174;2023-07-31T00:00:39;100718.41;;;15.35;86.17
53514;BME280;39768;54.148;12.174;2023-07-31T00:04:40;100722.41;;;15.28;86.71
53514;BME280;39768;54.148;12.174;2023-07-31T00:08:42;100725.78;;;14.98;89.48
53514;BME280;39768;54.148;12.174;2023-07-31T00:12:44;100720.38;;;15.16;87.95
53514;BME280;39768;54.148;12.174;2023-07-31T00:16:46;100718.19;;;15.39;88.17
53514;BME280;39768;54.148;12.174;2023-07-31T00:20:50;100715.09;;;14.62;92.39
53514;BME280;39768;54.148;12.174;2023-07-31T00:24:52;100716.47;;;15.04;89.81
53514;BME280;39768;54.148;12.174;2023-07-31T00:28:53;100713.41;;;14.43;96.45
53514;BME280;39768;54.148;12.174;2023-07-31T00:32:55;100700.19;;;14.90;93.03
53514;BME280;39768;54.148;12.174;2023-07-31T00:36:56;100696.31;;;14.61;92.16
53514;BME280;39768;54.148;12.174;2023-07-31T00:40:58;100696.13;;;14.98;92.56
53514;BME280;39768;54.148;12.174;2023-07-31T00:45:00;100690.19;;;14.75;92.84
53514;BME280;39768;54.148;12.174;2023-07-31T00:49:02;100683.09;;;14.74;93.79
53514;BME280;39768;54.148;12.174;2023-07-31T00:53:04;100674.53;;;14.83;93.96
53514;BME280;39768;54.148;12.174;2023-07-31T00:57:07;100677.44;;;14.78;94.08
53514;BME280;39768;54.148;12.174;2023-07-31T01:01:09;100678.75;;;14.71;95.32
53514;BME280;39768;54.148;12.174;2023-07-31T01:05:12;100679.53;;;14.56;95.78
53514;BME280;39768;54.148;12.174;2023-07-31T01:09:28;100673.06;;;14.24;99.84
53514;BME280;39768;54.148;12.174;2023-07-31T01:13:31;100675.72;;;14.60;95.67
53514;BME280;39768;54.148;12.174;2023-07-31T01:17:32;100668.41;;;14.27;99.19
53514;BME280;39768;54.148;12.174;2023-07-31T01:26:19;100662.34;;;14.05;98.80
53514;BME280;39768;54.148;12.174;2023-07-31T01:30:25;100659.81;;;14.73;97.79
53514;BME280;39768;54.148;12.174;2023-07-31T01:34:30;100656.91;;;14.07;99.49
53514;BME280;39768;54.148;12.174;2023-07-31T01:38:32;100645.00;;;14.64;97.49
53514;BME280;39768;54.148;12.174;2023-07-31T01:42:34;100645.44;;;14.20;99.32
53514;BME280;39768;54.148;12.174;2023-07-31T01:46:35;100643.25;;;14.28;100.00
53514;BME280;39768;54.148;12.174;2023-07-31T01:50:37;100639.16;;;14.02;100.00
53514;BME280;39768;54.148;12.174;2023-07-31T01:54:38;100632.81;;;14.57;98.83
53514;BME280;39768;54.148;12.174;2023-07-31T01:58:40;100630.00;;;14.76;96.02
53514;BME280;39768;54.148;12.174;2023-07-31T02:02:41;100624.56;;;14.25;100.00
53514;BME280;39768;54.148;12.174;2023-07-31T02:06:43;100624.56;;;14.43;97.00
53514;BME280;39768;54.148;12.174;2023-07-31T02:10:45;100625.28;;;14.96;94.46
53514;BME280;39768;54.148;12.174;2023-07-31T02:14:46;100620.34;;;14.37;98.56
53514;BME280;39768;54.148;12.174;2023-07-31T02:18:48;100611.22;;;14.74;96.22
53514;BME280;39768;54.148;12.174;2023-07-31T02:22:49;100606.81;;;14.73;95.02
53514;BME280;39768;54.148;12.174;2023-07-31T02:26:51;100616.66;;;14.57;97.72
53514;BME280;39768;54.148;12.174;2023-07-31T02:30:52;100597.22;;;15.00;94.87
53514;BME280;39768;54.148;12.174;2023-07-31T02:34:54;100605.47;;;14.30;97.79
53514;BME280;39768;54.148;12.174;2023-07-31T02:38:55;100605.16;;;14.53;98.56
53514;BME280;39768;54.148;12.174;2023-07-31T02:42:57;100613.56;;;14.97;93.61
53514;BME280;39768;54.148;12.174;2023-07-31T02:46:58;100637.88;;;14.96;95.86
53514;BME280;39768;54.148;12.174;2023-07-31T02:51:00;100635.06;;;13.95;100.00
53514;BME280;39768;54.148;12.174;2023-07-31T02:55:01;100643.81;;;14.69;100.00
53514;BME280;39768;54.148;12.174;2023-07-31T02:59:03;100636.03;;;14.29;100.00
53514;BME280;39768;54.148;12.174;2023-07-31T03:03:05;100623.00;;;14.89;99.84
53514;BME280;39768;54.148;12.174;2023-07-31T03:07:06;100624.63;;;15.24;97.01
53514;BME280;39768;54.148;12.174;2023-07-31T03:11:08;100616.31;;;15.29;99.22
53514;BME280;39768;54.148;12.174;2023-07-31T03:15:10;100609.66;;;15.03;99.28
53514;BME280;39768;54.148;12.174;2023-07-31T03:19:11;100606.44;;;15.45;98.23
53514;BME280;39768;54.148;12.174;2023-07-31T03:23:13;100610.66;;;15.65;96.88
53514;BME280;39768;54.148;12.174;2023-07-31T03:27:14;100599.13;;;15.47;96.79
53514;BME280;39768;54.148;12.174;2023-07-31T03:31:16;100614.16;;;15.51;97.57
53514;BME280;39768;54.148;12.174;2023-07-31T03:35:17;100601.34;;;14.40;100.00
53514;BME280;39768;54.148;12.174;2023-07-31T03:39:19;100601.16;;;14.78;100.00
53514;BME280;39768;54.148;12.174;2023-07-31T03:43:20;100603.63;;;15.31;100.00
53514;BME280;39768;54.148;12.174;2023-07-31T03:47:22;100612.78;;;15.60;98.34
53514;BME280;39768;54.148;12.174;2023-07-31T03:51:23;100604.97;;;15.06;100.00
53514;BME280;39768;54.148;12.174;2023-07-31T03:55:25;100603.81;;;15.59;98.52
53514;BME280;39768;54.148;12.174;2023-07-31T03:59:27;100609.56;;;15.04;99.88
53514;BME280;39768;54.148;12.174;2023-07-31T04:03:29;100599.56;;;15.39;99.99
53514;BME280;39768;54.148;12.174;2023-07-31T04:07:30;100592.22;;;15.26;100.00
53514;BME280;39768;54.148;12.174;2023-07-31T04:11:32;100587.97;;;15.37;100.00
53514;BME280;39768;54.148;12.174;2023-07-31T04:15:33;100580.13;;;15.33;100.00
53514;BME280;39768;54.148;12.174;2023-07-31T04:19:35;100574.56;;;15.67;100.00
53514;BME280;39768;54.148;12.174;2023-07-31T04:23:36;100570.78;;;15.86;100.00
53514;BME280;39768;54.148;12.174;2023-07-31T04:27:40;100573.50;;;15.86;99.37
53514;BME280;39768;54.148;12.174;2023-07-31T04:31:41;100560.75;;;15.42;100.00
53514;BME280;39768;54.148;12.174;2023-07-31T04:35:51;100564.25;;;15.44;100.00
53514;BME280;39768;54.148;12.174;2023-07-31T04:39:53;100558.94;;;15.58;100.00
53514;BME280;39768;54.148;12.174;2023-07-31T04:43:55;100561.84;;;15.69;100.00
53514;BME280;39768;54.148;12.174;2023-07-31T04:47:57;100553.81;;;15.84;100.00
53514;BME280;39768;54.148;12.174;2023-07-31T04:51:58;100553.16;;;15.49;100.00
53514;BME280;39768;54.148;12.174;2023-07-31T04:56:00;100550.19;;;15.22;100.00
53514;BME280;39768;54.148;12.174;2023-07-31T05:00:02;100555.34;;;15.26;100.00
53514;BME280;39768;54.148;12.174;2023-07-31T05:04:04;100551.94;;;15.23;100.00
53514;BME280;39768;54.148;12.174;2023-07-31T05:08:05;100551.19;;;15.36;100.00
53514;BME280;39768;54.148;12.174;2023-07-31T05:12:07;100548.03;;;15.28;100.00
53514;BME280;39768;54.148;12.174;2023-07-31T05:16:09;100537.53;;;15.55;100.00
53514;BME280;39768;54.148;12.174;2023-07-31T05:20:10;100540.22;;;15.55;100.00
53514;BME280;39768;54.148;12.174;2023-07-31T05:24:12;100532.63;;;15.77;100.00
53514;BME280;39768;54.148;12.174;2023-07-31T05:28:14;100534.66;;;15.88;100.00
53514;BME280;39768;54.148;12.174;2023-07-31T05:32:15;100528.81;;;15.50;100.00
53514;BME280;39768;54.148;12.174;2023-07-31T05:36:17;100515.41;;;15.94;100.00
53514;BME280;39768;54.148;12.174;2023-07-31T05:40:19;100511.41;;;16.16;100.00
53514;BME280;39768;54.148;12.174;2023-07-31T05:44:20;100521.00;;;16.21;100.00
53514;BME280;39768;54.148;12.174;2023-07-31T05:48:22;100516.00;;;15.99;100.00
53514;BME280;39768;54.148;12.174;2023-07-31T05:52:23;100499.66;;;16.17;100.00
53514;BME280;39768;54.148;12.174;2023-07-31T05:56:25;100506.66;;;16.05;100.00
53514;BME280;39768;54.148;12.174;2023-07-31T06:00:28;100506.38;;;16.09;100.00
53514;BME280;39768;54.148;12.174;2023-07-31T06:04:30;100495.56;;;16.09;100.00
53514;BME280;39768;54.148;12.174;2023-07-31T06:08:32;100491.72;;;16.13;100.00
53514;BME280;39768;54.148;12.174;2023-07-31T06:12:35;100489.00;;;16.43;100.00
53514;BME280;39768;54.148;12.174;2023-07-31T06:16:36;100483.19;;;17.06;100.00
53514;BME280;39768;54.148;12.174;2023-07-31T06:20:38;100490.34;;;16.65;100.00
53514;BME280;39768;54.148;12.174;2023-07-31T06:24:41;100495.16;;;16.74;100.00
53514;BME280;39768;54.148;12.174;2023-07-31T06:28:43;100494.84;;;16.93;100.00
53514;BME280;39768;54.148;12.174;2023-07-31T06:32:44;100489.84;;;17.01;100.00
53514;BME280;39768;54.148;12.174;2023-07-31T06:36:46;100485.47;;;16.98;100.00
53514;BME280;39768;54.148;12.174;2023-07-31T06:40:48;100479.09;;;17.13;100.00
53514;BME280;39768;54.148;12.174;2023-07-31T06:44:50;100477.44;;;17.65;100.00
53514;BME280;39768;54.148;12.174;2023-07-31T06:48:51;100476.72;;;17.36;100.00
53514;BME280;39768;54.148;12.174;2023-07-31T06:52:53;100463.00;;;17.39;100.00
53514;BME280;39768;54.148;12.174;2023-07-31T06:56:54;100459.81;;;17.05;98.29
53514;BME280;39768;54.148;12.174;2023-07-31T07:00:56;100460.59;;;17.07;100.00
53514;BME280;39768;54.148;12.174;2023-07-31T07:04:57;100464.56;;;17.56;98.67
53514;BME280;39768;54.148;12.174;2023-07-31T07:08:59;100465.22;;;17.72;96.71
53514;BME280;39768;54.148;12.174;2023-07-31T07:13:00;100457.47;;;17.40;100.00
53514;BME280;39768;54.148;12.174;2023-07-31T07:17:02;100463.19;;;17.75;99.89
53514;BME280;39768;54.148;12.174;2023-07-31T07:21:04;100454.38;;;18.62;94.49
53514;BME280;39768;54.148;12.174;2023-07-31T07:25:06;100451.72;;;18.86;91.14
53514;BME280;39768;54.148;12.174;2023-07-31T07:29:08;100448.22;;;18.22;92.35
53514;BME280;39768;54.148;12.174;2023-07-31T07:33:12;100446.78;;;17.78;92.02
53514;BME280;39768;54.148;12.174;2023-07-31T07:37:14;100450.78;;;18.36;87.57
53514;BME280;39768;54.148;12.174;2023-07-31T07:41:15;100453.19;;;18.28;88.94
53514;BME280;39768;54.148;12.174;2023-07-31T07:45:17;100446.78;;;18.67;85.51
53514;BME280;39768;54.148;12.174;2023-07-31T07:49:18;100451.97;;;19.07;82.92
53514;BME280;39768;54.148;12.174;2023-07-31T07:53:20;100437.84;;;19.14;80.91
53514;BME280;39768;54.148;12.174;2023-07-31T07:57:21;100438.22;;;18.61;83.00
53514;BME280;39768;54.148;12.174;2023-07-31T08:01:23;100433.38;;;18.89;79.21
53514;BME280;39768;54.148;12.174;2023-07-31T08:05:24;100448.75;;;18.52;83.55
53514;BME280;39768;54.148;12.174;2023-07-31T08:09:26;100436.22;;;17.74;86.91
53514;BME280;39768;54.148;12.174;2023-07-31T08:13:28;100435.72;;;18.32;83.79
53514;BME280;39768;54.148;12.174;2023-07-31T08:17:29;100438.34;;;17.83;86.66
53514;BME280;39768;54.148;12.174;2023-07-31T08:21:31;100444.94;;;18.17;85.48
53514;BME280;39768;54.148;12.174;2023-07-31T08:25:35;100438.66;;;18.16;86.22
53514;BME280;39768;54.148;12.174;2023-07-31T08:29:36;100428.88;;;17.76;87.28
53514;BME280;39768;54.148;12.174;2023-07-31T08:33:38;100442.03;;;18.20;82.85
53514;BME280;39768;54.148;12.174;2023-07-31T08:37:40;100427.66;;;19.05;79.46
53514;BME280;39768;54.148;12.174;2023-07-31T08:41:41;100438.63;;;18.80;79.43
53514;BME280;39768;54.148;12.174;2023-07-31T08:45:43;100423.81;;;19.20;76.52
53514;BME280;39768;54.148;12.174;2023-07-31T08:49:46;100427.84;;;18.54;77.50
53514;BME280;39768;54.148;12.174;2023-07-31T08:53:47;100429.22;;;18.73;78.56
53514;BME280;39768;54.148;12.174;2023-07-31T08:57:50;100429.09;;;18.49;78.47
53514;BME280;39768;54.148;12.174;2023-07-31T09:01:54;100418.84;;;18.16;77.32
53514;BME280;39768;54.148;12.174;2023-07-31T09:05:57;100429.31;;;18.46;76.64
53514;BME280;39768;54.148;12.174;2023-07-31T09:10:00;100421.69;;;18.89;75.65
53514;BME280;39768;54.148;12.174;2023-07-31T09:14:02;100422.88;;;18.85;74.45
53514;BME280;39768;54.148;12.174;2023-07-31T09:18:09;100417.88;;;18.42;78.89
53514;BME280;39768;54.148;12.174;2023-07-31T09:22:11;100408.97;;;18.53;77.29
53514;BME280;39768;54.148;12.174;2023-07-31T09:26:35;100407.28;;;18.76;78.78
53514;BME280;39768;54.148;12.174;2023-07-31T09:30:47;100414.09;;;19.18;78.24
53514;BME280;39768;54.148;12.174;2023-07-31T09:34:49;100420.03;;;19.23;75.96
53514;BME280;39768;54.148;12.174;2023-07-31T09:38:50;100419.59;;;19.64;79.03
53514;BME280;39768;54.148;12.174;2023-07-31T09:42:53;100415.50;;;19.11;73.26
53514;BME280;39768;54.148;12.174;2023-07-31T09:46:54;100403.56;;;20.29;73.13
53514;BME280;39768;54.148;12.174;2023-07-31T09:50:56;100402.19;;;20.24;72.93
53514;BME280;39768;54.148;12.174;2023-07-31T09:55:05;100390.25;;;19.80;73.93
53514;BME280;39768;54.148;12.174;2023-07-31T09:59:07;100377.19;;;19.39;74.54
53514;BME280;39768;54.148;12.174;2023-07-31T10:03:10;100381.22;;;19.10;75.41
53514;BME280;39768;54.148;12.174;2023-07-31T10:07:13;100380.41;;;19.33;73.12
53514;BME280;39768;54.148;12.174;2023-07-31T10:11:16;100368.09;;;19.51;70.70
53514;BME280;39768;54.148;12.174;2023-07-31T10:15:19;100373.91;;;18.99;76.04
53514;BME280;39768;54.148;12.174;2023-07-31T10:19:21;100378.06;;;19.40;73.40
53514;BME280;39768;54.148;12.174;2023-07-31T10:23:23;100377.13;;;19.98;70.75
53514;BME280;39768;54.148;12.174;2023-07-31T10:27:26;100376.31;;;19.63;72.83
53514;BME280;39768;54.148;12.174;2023-07-31T10:31:28;100381.88;;;19.83;72.22
53514;BME280;39768;54.148;12.174;2023-07-31T10:35:30;100358.63;;;20.03;73.08
53514;BME280;39768;54.148;12.174;2023-07-31T10:39:36;100355.16;;;20.01;73.68
53514;BME280;39768;54.148;12.174;2023-07-31T10:43:39;100347.75;;;20.03;76.52
53514;BME280;39768;54.148;12.174;2023-07-31T10:47:45;100349.25;;;20.07;78.34
53514;BME280;39768;54.148;12.174;2023-07-31T10:51:47;100351.31;;;20.26;74.13
53514;BME280;39768;54.148;12.174;2023-07-31T10:55:49;100343.38;;;20.56;73.76
53514;BME280;39768;54.148;12.174;2023-07-31T11:00:19;100342.16;;;20.38;71.87
53514;BME280;39768;54.148;12.174;2023-07-31T11:04:25;100335.94;;;19.58;74.83
53514;BME280;39768;54.148;12.174;2023-07-31T11:08:30;100328.19;;;19.76;75.41
53514;BME280;39768;54.148;12.174;2023-07-31T11:12:32;100327.63;;;18.89;82.62
53514;BME280;39768;54.148;12.174;2023-07-31T11:16:33;100327.41;;;19.51;81.56
53514;BME280;39768;54.148;12.174;2023-07-31T11:20:36;100328.78;;;19.57;84.76
53514;BME280;39768;54.148;12.174;2023-07-31T11:24:38;100315.28;;;19.09;83.24
53514;BME280;39768;54.148;12.174;2023-07-31T11:28:39;100314.22;;;19.47;85.14
53514;BME280;39768;54.148;12.174;2023-07-31T11:32:44;100327.56;;;19.61;85.96
53514;BME280;39768;54.148;12.174;2023-07-31T11:36:55;100324.09;;;19.48;86.94
53514;BME280;39768;54.148;12.174;2023-07-31T11:40:58;100326.00;;;19.92;84.48
53514;BME280;39768;54.148;12.174;2023-07-31T11:45:09;100326.00;;;19.11;91.67
53514;BME280;39768;54.148;12.174;2023-07-31T11:49:11;100329.53;;;19.24;87.21
53514;BME280;39768;54.148;12.174;2023-07-31T11:53:13;100340.50;;;18.75;92.64
53514;BME280;39768;54.148;12.174;2023-07-31T11:57:15;100326.41;;;19.41;91.14
53514;BME280;39768;54.148;12.174;2023-07-31T12:01:18;100323.03;;;18.79;89.95
53514;BME280;39768;54.148;12.174;2023-07-31T12:05:21;100330.81;;;17.98;96.93
53514;BME280;39768;54.148;12.174;2023-07-31T12:09:23;100323.81;;;17.82;100.00
53514;BME280;39768;54.148;12.174;2023-07-31T12:13:26;100300.41;;;18.31;99.88
53514;BME280;39768;54.148;12.174;2023-07-31T12:17:28;100294.53;;;17.88;99.59
53514;BME280;39768;54.148;12.174;2023-07-31T12:21:30;100307.84;;;17.40;97.82
53514;BME280;39768;54.148;12.174;2023-07-31T12:25:32;100307.75;;;17.92;98.17
53514;BME280;39768;54.148;12.174;2023-07-31T12:29:34;100297.91;;;17.40;100.00
53514;BME280;39768;54.148;12.174;2023-07-31T12:33:41;100287.53;;;17.85;100.00
53514;BME280;39768;54.148;12.174;2023-07-31T12:37:43;100280.66;;;18.05;100.00
53514;BME280;39768;54.148;12.174;2023-07-31T12:41:45;100273.31;;;17.94;100.00
53514;BME280;39768;54.148;12.174;2023-07-31T12:45:46;100273.22;;;17.96;100.00
53514;BME280;39768;54.148;12.174;2023-07-31T12:49:48;100261.53;;;17.70;100.00
53514;BME280;39768;54.148;12.174;2023-07-31T12:53:50;100261.50;;;18.08;100.00
53514;BME280;39768;54.148;12.174;2023-07-31T12:57:51;100245.41;;;17.68;99.68
53514;BME280;39768;54.148;12.174;2023-07-31T13:01:55;100251.09;;;18.14;100.00
53514;BME280;39768;54.148;12.174;2023-07-31T13:05:57;100260.53;;;17.71;100.00
53514;BME280;39768;54.148;12.174;2023-07-31T13:09:58;100275.81;;;18.34;99.08
53514;BME280;39768;54.148;12.174;2023-07-31T13:14:00;100271.25;;;18.10;98.96
53514;BME280;39768;54.148;12.174;2023-07-31T13:18:02;100268.06;;;18.16;99.33
53514;BME280;39768;54.148;12.174;2023-07-31T13:22:03;100263.13;;;18.71;99.06
53514;BME280;39768;54.148;12.174;2023-07-31T13:26:05;100256.97;;;19.04;99.31
53514;BME280;39768;54.148;12.174;2023-07-31T13:30:07;100256.13;;;19.03;96.85
53514;BME280;39768;54.148;12.174;2023-07-31T13:34:08;100259.03;;;18.65;98.55
53514;BME280;39768;54.148;12.174;2023-07-31T13:38:10;100245.06;;;19.17;96.91
53514;BME280;39768;54.148;12.174;2023-07-31T13:42:11;100253.72;;;18.87;98.45
53514;BME280;39768;54.148;12.174;2023-07-31T13:46:13;100253.69;;;18.40;99.73
53514;BME280;39768;54.148;12.174;2023-07-31T13:50:15;100243.03;;;18.49;100.00
53514;BME280;39768;54.148;12.174;2023-07-31T13:54:18;100240.16;;;18.87;100.00
53514;BME280;39768;54.148;12.174;2023-07-31T13:58:20;100228.72;;;19.41;96.62
53514;BME280;39768;54.148;12.174;2023-07-31T14:02:21;100221.31;;;19.32;97.15
53514;BME280;39768;54.148;12.174;2023-07-31T14:06:23;100223.69;;;19.48;97.80
53514;BME280;39768;54.148;12.174;2023-07-31T14:10:25;100236.75;;;19.43;93.46
53514;BME280;39768;54.148;12.174;2023-07-31T14:14:26;100234.06;;;19.76;95.63
53514;BME280;39768;54.148;12.174;2023-07-31T14:18:28;100227.16;;;19.15;91.06
53514;BME280;39768;54.148;12.174;2023-07-31T14:22:30;100202.78;;;17.46;100.00
53514;BME280;39768;54.148;12.174;2023-07-31T14:26:32;100201.47;;;18.38;100.00
53514;BME280;39768;54.148;12.174;2023-07-31T14:30:33;100213.19;;;18.14;100.00
53514;BME280;39768;54.148;12.174;2023-07-31T14:34:35;100226.72;;;18.86;98.79
53514;BME280;39768;54.148;12.174;2023-07-31T14:38:36;100215.28;;;19.05;99.80
53514;BME280;39768;54.148;12.174;2023-07-31T14:42:39;100208.16;;;18.69;100.00
53514;BME280;39768;54.148;12.174;2023-07-31T14:46:41;100187.13;;;19.18;100.00
53514;BME280;39768;54.148;12.174;2023-07-31T14:50:43;100189.56;;;18.75;100.00
53514;BME280;39768;54.148;12.174;2023-07-31T14:54:45;100185.00;;;19.22;99.66
53514;BME280;39768;54.148;12.174;2023-07-31T14:58:46;100188.56;;;19.00;97.46
53514;BME280;39768;54.148;12.174;2023-07-31T15:02:48;100175.91;;;18.77;98.76
53514;BME280;39768;54.148;12.174;2023-07-31T15:06:51;100187.28;;;18.34;100.00
53514;BME280;39768;54.148;12.174;2023-07-31T15:10:54;100194.81;;;18.54;100.00
53514;BME280;39768;54.148;12.174;2023-07-31T15:14:58;100187.81;;;18.98;98.68
53514;BME280;39768;54.148;12.174;2023-07-31T15:19:00;100184.03;;;18.42;100.00
53514;BME280;39768;54.148;12.174;2023-07-31T15:23:01;100172.66;;;19.07;99.02
53514;BME280;39768;54.148;12.174;2023-07-31T15:27:03;100166.63;;;19.03;96.74
53514;BME280;39768;54.148;12.174;2023-07-31T15:31:04;100162.94;;;18.45;99.24
53514;BME280;39768;54.148;12.174;2023-07-31T15:35:06;100176.94;;;18.52;100.00
53514;BME280;39768;54.148;12.174;2023-07-31T15:39:08;100176.75;;;18.42;100.00
53514;BME280;39768;54.148;12.174;2023-07-31T15:43:10;100173.78;;;18.45;100.00
53514;BME280;39768;54.148;12.174;2023-07-31T15:47:11;100165.16;;;18.64;99.28
53514;BME280;39768;54.148;12.174;2023-07-31T15:51:13;100151.50;;;18.77;98.25
53514;BME280;39768;54.148;12.174;2023-07-31T15:55:15;100164.16;;;18.54;100.00
53514;BME280;39768;54.148;12.174;2023-07-31T15:59:17;100161.09;;;18.11;100.00
53514;BME280;39768;54.148;12.174;2023-07-31T16:03:19;100150.53;;;18.78;98.17
53514;BME280;39768;54.148;12.174;2023-07-31T16:07:22;100158.84;;;18.87;97.13
53514;BME280;39768;54.148;12.174;2023-07-31T16:11:25;100162.31;;;19.01;94.35
53514;BME280;39768;54.148;12.174;2023-07-31T16:15:26;100163.66;;;18.60;96.62
53514;BME280;39768;54.148;12.174;2023-07-31T16:19:28;100141.38;;;18.09;100.00
53514;BME280;39768;54.148;12.174;2023-07-31T16:23:29;100123.25;;;17.98;94.89
53514;BME280;39768;54.148;12.174;2023-07-31T16:27:31;100137.34;;;17.91;93.86
53514;BME280;39768;54.148;12.174;2023-07-31T16:31:32;100167.00;;;17.17;100.00
53514;BME280;39768;54.148;12.174;2023-07-31T16:35:53;100163.88;;;17.73;100.00
53514;BME280;39768;54.148;12.174;2023-07-31T16:39:55;100158.53;;;16.97;100.00
53514;BME280;39768;54.148;12.174;2023-07-31T16:43:57;100153.56;;;16.38;100.00
53514;BME280;39768;54.148;12.174;2023-07-31T16:48:00;100152.81;;;17.01;100.00
53514;BME280;39768;54.148;12.174;2023-07-31T16:52:02;100135.41;;;16.80;100.00
53514;BME280;39768;54.148;12.174;2023-07-31T16:56:04;100133.16;;;16.99;100.00
53514;BME280;39768;54.148;12.174;2023-07-31T17:00:06;100130.25;;;17.02;99.91
53514;BME280;39768;54.148;12.174;2023-07-31T17:04:08;100119.28;;;16.66;100.00
53514;BME280;39768;54.148;12.174;2023-07-31T17:08:10;100121.13;;;16.78;100.00
53514;BME280;39768;54.148;12.174;2023-07-31T17:12:11;100118.66;;;17.00;100.00
53514;BME280;39768;54.148;12.174;2023-07-31T17:16:13;100127.06;;;16.83;100.00
53514;BME280;39768;54.148;12.174;2023-07-31T17:20:15;100116.50;;;16.28;100.00
53514;BME280;39768;54.148;12.174;2023-07-31T17:24:19;100104.84;;;16.40;100.00
53514;BME280;39768;54.148;12.174;2023-07-31T17:28:20;100099.06;;;16.71;100.00
53514;BME280;39768;54.148;12.174;2023-07-31T17:32:22;100089.47;;;17.18;100.00
53514;BME280;39768;54.148;12.174;2023-07-31T17:36:25;100089.47;;;17.18;100.00
53514;BME280;39768;54.148;12.174;2023-07-31T17:40:26;100084.13;;;15.74;100.00
53514;BME280;39768;54.148;12.174;2023-07-31T17:44:28;100077.84;;;16.00;100.00
53514;BME280;39768;54.148;12.174;2023-07-31T17:48:31;100081.75;;;16.36;100.00
53514;BME280;39768;54.148;12.174;2023-07-31T17:52:33;100079.88;;;16.24;100.00
53514;BME280;39768;54.148;12.174;2023-07-31T17:56:35;100076.38;;;16.36;100.00
53514;BME280;39768;54.148;12.174;2023-07-31T18:00:40;100075.41;;;16.62;100.00
53514;BME280;39768;54.148;12.174;2023-07-31T18:04:42;100072.50;;;16.13;100.00
53514;BME280;39768;54.148;12.174;2023-07-31T18:08:44;100070.97;;;16.74;100.00
53514;BME280;39768;54.148;12.174;2023-07-31T18:12:45;100070.22;;;16.85;100.00
53514;BME280;39768;54.148;12.174;2023-07-31T18:16:47;100056.16;;;16.67;100.00
53514;BME280;39768;54.148;12.174;2023-07-31T18:20:48;100056.28;;;16.65;100.00
53514;BME280;39768;54.148;12.174;2023-07-31T18:24:50;100061.03;;;16.36;100.00
53514;BME280;39768;54.148;12.174;2023-07-31T18:28:51;100046.53;;;16.88;100.00
53514;BME280;39768;54.148;12.174;2023-07-31T18:32:53;100037.56;;;16.24;100.00
53514;BME280;39768;54.148;12.174;2023-07-31T18:36:55;100039.63;;;16.84;100.00
53514;BME280;39768;54.148;12.174;2023-07-31T18:40:57;100030.88;;;16.93;100.00
53514;BME280;39768;54.148;12.174;2023-07-31T18:44:59;100040.28;;;16.88;100.00
53514;BME280;39768;54.148;12.174;2023-07-31T18:49:00;100043.09;;;16.73;100.00
53514;BME280;39768;54.148;12.174;2023-07-31T18:53:02;100054.88;;;16.60;100.00
53514;BME280;39768;54.148;12.174;2023-07-31T18:57:04;100042.53;;;16.30;100.00
53514;BME280;39768;54.148;12.174;2023-07-31T19:01:05;100024.94;;;15.58;100.00
53514;BME280;39768;54.148;12.174;2023-07-31T19:05:07;100037.59;;;16.10;100.00
53514;BME280;39768;54.148;12.174;2023-07-31T19:09:12;100022.72;;;16.17;100.00
53514;BME280;39768;54.148;12.174;2023-07-31T19:13:14;100019.97;;;16.31;100.00
53514;BME280;39768;54.148;12.174;2023-07-31T19:17:15;100019.56;;;16.63;100.00
53514;BME280;39768;54.148;12.174;2023-07-31T19:21:16;100017.63;;;16.12;100.00
53514;BME280;39768;54.148;12.174;2023-07-31T19:25:18;100003.97;;;16.41;100.00
53514;BME280;39768;54.148;12.174;2023-07-31T19:29:20;100000.09;;;16.70;100.00
53514;BME280;39768;54.148;12.174;2023-07-31T19:33:21;99985.81;;;17.30;100.00
53514;BME280;39768;54.148;12.174;2023-07-31T19:37:23;99978.03;;;16.76;100.00
53514;BME280;39768;54.148;12.174;2023-07-31T19:41:24;99979.75;;;16.90;100.00
53514;BME280;39768;54.148;12.174;2023-07-31T19:45:26;99986.06;;;17.51;100.00
53514;BME280;39768;54.148;12.174;2023-07-31T19:49:28;99983.75;;;17.34;100.00
53514;BME280;39768;54.148;12.174;2023-07-31T19:53:29;99993.56;;;17.11;100.00
53514;BME280;39768;54.148;12.174;2023-07-31T19:57:31;99989.25;;;17.56;100.00
53514;BME280;39768;54.148;12.174;2023-07-31T20:01:32;99996.53;;;17.32;100.00
53514;BME280;39768;54.148;12.174;2023-07-31T20:05:34;99997.88;;;17.13;100.00
53514;BME280;39768;54.148;12.174;2023-07-31T20:09:38;100001.38;;;17.63;100.00
53514;BME280;39768;54.148;12.174;2023-07-31T20:13:39;100003.97;;;17.65;100.00
53514;BME280;39768;54.148;12.174;2023-07-31T20:17:41;99997.53;;;17.55;100.00
53514;BME280;39768;54.148;12.174;2023-07-31T20:21:42;99996.34;;;17.22;100.00
53514;BME280;39768;54.148;12.174;2023-07-31T20:25:46;99999.91;;;17.23;100.00
53514;BME280;39768;54.148;12.174;2023-07-31T20:29:47;99995.03;;;17.51;100.00
53514;BME280;39768;54.148;12.174;2023-07-31T20:33:49;99989.31;;;17.43;100.00
53514;BME280;39768;54.148;12.174;2023-07-31T20:37:51;99986.72;;;17.42;100.00
53514;BME280;39768;54.148;12.174;2023-07-31T20:41:52;99972.75;;;17.72;100.00
53514;BME280;39768;54.148;12.174;2023-07-31T20:45:54;99974.38;;;17.50;100.00